sensor_id;sensor_type;location;lat;lon;timestamp;pressure;altitude;pressure_sealevel;temperature;humidity
27294;BME280;14785;52.556;13.430;2023-05-01T00:01:33;101312.16;;;12.32;100.00
27294;BME280;14785;52.556;13.430;2023-05-01T00:03:59;101310.22;;;12.24;100.00
27294;BME280;14785;52.556;13.430;2023-05-01T00:06:24;101317.41;;;11.97;100.00
27294;BME280;14785;52.556;13.430;2023-05-01T00:08:50;101318.84;;;12.18;100.00
27294;BME280;14785;52.556;13.430;2023-05-01T00:11:16;101312.44;;;12.29;100.00
27294;BME280;14785;52.556;13.430;2023-05-01T00:13:41;101318.13;;;12.16;100.00
27294;BME280;14785;52.556;13.430;2023-05-01T00:16:08;101311.84;;;11.90;100.00
27294;BME280;14785;52.556;13.430;2023-05-01T00:18:33;101308.81;;;12.03;100.00
27294;BME280;14785;52.556;13.430;2023-05-01T00:20:59;101314.31;;;12.01;100.00
27294;BME280;14785;52.556;13.430;2023-05-01T00:23:24;101308.97;;;12.01;100.00
27294;BME280;14785;52.556;13.430;2023-05-01T00:25:49;101309.09;;;12.27;100.00
27294;BME280;14785;52.556;13.430;2023-05-01T00:28:17;101310.44;;;12.31;100.00
27294;BME280;14785;52.556;13.430;2023-05-01T00:30:43;101306.88;;;12.22;100.00
27294;BME280;14785;52.556;13.430;2023-05-01T00:33:09;101304.56;;;12.10;100.00
27294;BME280;14785;52.556;13.430;2023-05-01T00:35:35;101296.25;;;12.13;100.00
27294;BME280;14785;52.556;13.430;2023-05-01T00:38:00;101305.69;;;11.90;100.00
27294;BME280;14785;52.556;13.430;2023-05-01T00:40:25;101301.81;;;12.02;100.00
27294;BME280;14785;52.556;13.430;2023-05-01T00:42:52;101300.53;;;12.06;100.00
27294;BME280;14785;52.556;13.430;2023-05-01T00:45:17;101296.56;;;12.10;100.00
27294;BME280;14785;52.556;13.430;2023-05-01T00:47:43;101301.53;;;12.05;100.00
27294;BME280;14785;52.556;13.430;2023-05-01T00:50:08;101290.09;;;12.12;100.00
27294;BME280;14785;52.556;13.430;2023-05-01T00:52:34;101287.03;;;12.25;100.00
27294;BME280;14785;52.556;13.430;2023-05-01T00:55:00;101289.19;;;12.21;100.00
27294;BME280;14785;52.556;13.430;2023-05-01T00:57:25;101285.13;;;12.00;100.00
27294;BME280;14785;52.556;13.430;2023-05-01T00:59:51;101290.16;;;12.03;100.00
27294;BME280;14785;52.556;13.430;2023-05-01T01:02:16;101285.91;;;12.10;100.00
27294;BME280;14785;52.556;13.430;2023-05-01T01:04:44;101279.66;;;12.19;100.00
27294;BME280;14785;52.556;13.430;2023-05-01T01:14:41;101278.31;;;11.88;100.00
27294;BME280;14785;52.556;13.430;2023-05-01T01:17:16;101282.13;;;11.85;100.00
27294;BME280;14785;52.556;13.430;2023-05-01T01:22:22;101275.22;;;11.55;100.00
27294;BME280;14785;52.556;13.430;2023-05-01T01:27:38;101268.50;;;11.61;100.00
27294;BME280;14785;52.556;13.430;2023-05-01T01:35:34;101261.75;;;11.67;100.00
27294;BME280;14785;52.556;13.430;2023-05-01T01:38:10;101262.34;;;11.51;100.00
27294;BME280;14785;52.556;13.430;2023-05-01T01:40:54;101254.47;;;11.69;100.00
27294;BME280;14785;52.556;13.430;2023-05-01T01:43:22;101252.16;;;11.74;100.00
27294;BME280;14785;52.556;13.430;2023-05-01T01:46:07;101254.03;;;11.91;100.00
27294;BME280;14785;52.556;13.430;2023-05-01T01:48:37;101254.28;;;11.97;100.00
27294;BME280;14785;52.556;13.430;2023-05-01T01:51:07;101256.56;;;11.92;100.00
27294;BME280;14785;52.556;13.430;2023-05-01T01:53:36;101258.16;;;12.03;100.00
27294;BME280;14785;52.556;13.430;2023-05-01T01:56:04;101251.78;;;11.96;100.00
27294;BME280;14785;52.556;13.430;2023-05-01T01:58:31;101246.03;;;11.91;100.00
27294;BME280;14785;52.556;13.430;2023-05-01T02:01:00;101243.38;;;11.91;100.00
27294;BME280;14785;52.556;13.430;2023-05-01T02:03:28;101247.63;;;11.84;100.00
27294;BME280;14785;52.556;13.430;2023-05-01T02:05:55;101241.28;;;11.67;100.00
27294;BME280;14785;52.556;13.430;2023-05-01T02:08:23;101241.09;;;11.41;100.00
27294;BME280;14785;52.556;13.430;2023-05-01T02:10:49;101232.44;;;11.30;100.00
27294;BME280;14785;52.556;13.430;2023-05-01T02:13:15;101235.81;;;11.32;100.00
27294;BME280;14785;52.556;13.430;2023-05-01T02:15:43;101241.31;;;10.84;100.00
27294;BME280;14785;52.556;13.430;2023-05-01T02:18:10;101234.72;;;10.88;100.00
27294;BME280;14785;52.556;13.430;2023-05-01T02:20:37;101235.34;;;11.09;100.00
27294;BME280;14785;52.556;13.430;2023-05-01T02:23:03;101231.00;;;11.18;100.00
27294;BME280;14785;52.556;13.430;2023-05-01T02:25:33;101234.28;;;11.29;100.00
27294;BME280;14785;52.556;13.430;2023-05-01T02:28:02;101222.84;;;11.46;100.00
27294;BME280;14785;52.556;13.430;2023-05-01T02:30:28;101224.47;;;11.30;100.00
27294;BME280;14785;52.556;13.430;2023-05-01T02:32:53;101228.91;;;11.12;100.00
27294;BME280;14785;52.556;13.430;2023-05-01T02:35:20;101218.69;;;11.34;100.00
27294;BME280;14785;52.556;13.430;2023-05-01T02:37:45;101223.28;;;11.15;100.00
27294;BME280;14785;52.556;13.430;2023-05-01T02:40:11;101213.47;;;11.15;100.00
27294;BME280;14785;52.556;13.430;2023-05-01T02:42:41;101209.06;;;10.97;100.00
27294;BME280;14785;52.556;13.430;2023-05-01T02:45:10;101209.84;;;11.16;100.00
27294;BME280;14785;52.556;13.430;2023-05-01T02:47:43;101209.84;;;11.16;100.00
27294;BME280;14785;52.556;13.430;2023-05-01T02:50:09;101205.63;;;10.77;100.00
27294;BME280;14785;52.556;13.430;2023-05-01T02:52:35;101202.38;;;10.83;100.00
27294;BME280;14785;52.556;13.430;2023-05-01T02:55:01;101194.00;;;10.78;100.00
27294;BME280;14785;52.556;13.430;2023-05-01T02:57:28;101191.00;;;10.35;100.00
27294;BME280;14785;52.556;13.430;2023-05-01T02:59:53;101202.19;;;10.01;100.00
27294;BME280;14785;52.556;13.430;2023-05-01T03:02:19;101194.06;;;10.40;100.00
27294;BME280;14785;52.556;13.430;2023-05-01T03:04:44;101178.88;;;10.79;100.00
27294;BME280;14785;52.556;13.430;2023-05-01T03:07:09;101180.09;;;10.84;100.00
27294;BME280;14785;52.556;13.430;2023-05-01T03:09:35;101176.88;;;10.90;100.00
27294;BME280;14785;52.556;13.430;2023-05-01T03:12:01;101168.22;;;10.79;100.00
27294;BME280;14785;52.556;13.430;2023-05-01T03:14:27;101170.22;;;10.67;100.00
27294;BME280;14785;52.556;13.430;2023-05-01T03:16:53;101162.50;;;10.64;100.00
27294;BME280;14785;52.556;13.430;2023-05-01T03:19:18;101170.44;;;9.99;100.00
27294;BME280;14785;52.556;13.430;2023-05-01T03:21:44;101170.06;;;10.13;100.00
27294;BME280;14785;52.556;13.430;2023-05-01T03:24:09;101175.59;;;10.39;100.00
27294;BME280;14785;52.556;13.430;2023-05-01T03:26:35;101163.75;;;10.24;100.00
27294;BME280;14785;52.556;13.430;2023-05-01T03:29:00;101170.44;;;10.18;100.00
27294;BME280;14785;52.556;13.430;2023-05-01T03:31:25;101160.53;;;10.20;100.00
27294;BME280;14785;52.556;13.430;2023-05-01T03:33:51;101156.31;;;9.89;100.00
27294;BME280;14785;52.556;13.430;2023-05-01T03:36:16;101159.94;;;9.98;100.00
27294;BME280;14785;52.556;13.430;2023-05-01T03:38:42;101159.91;;;10.45;100.00
27294;BME280;14785;52.556;13.430;2023-05-01T03:41:08;101162.00;;;10.51;100.00
27294;BME280;14785;52.556;13.430;2023-05-01T03:43:33;101157.38;;;10.53;100.00
27294;BME280;14785;52.556;13.430;2023-05-01T03:45:58;101155.88;;;10.78;100.00
27294;BME280;14785;52.556;13.430;2023-05-01T03:48:25;101150.03;;;10.74;100.00
27294;BME280;14785;52.556;13.430;2023-05-01T03:50:51;101155.13;;;10.95;100.00
27294;BME280;14785;52.556;13.430;2023-05-01T03:53:17;101156.44;;;10.91;100.00
27294;BME280;14785;52.556;13.430;2023-05-01T03:55:43;101157.25;;;10.91;100.00
27294;BME280;14785;52.556;13.430;2023-05-01T03:58:08;101153.53;;;11.11;100.00
27294;BME280;14785;52.556;13.430;2023-05-01T04:00:37;101151.84;;;11.10;100.00
27294;BME280;14785;52.556;13.430;2023-05-01T04:03:03;101147.59;;;11.17;100.00
27294;BME280;14785;52.556;13.430;2023-05-01T04:05:29;101148.38;;;11.27;100.00
27294;BME280;14785;52.556;13.430;2023-05-01T04:07:55;101146.03;;;11.42;100.00
27294;BME280;14785;52.556;13.430;2023-05-01T04:10:21;101151.44;;;11.32;100.00
27294;BME280;14785;52.556;13.430;2023-05-01T04:12:46;101140.31;;;11.19;100.00
27294;BME280;14785;52.556;13.430;2023-05-01T04:15:11;101142.56;;;11.14;100.00
27294;BME280;14785;52.556;13.430;2023-05-01T04:17:37;101144.38;;;11.14;100.00
27294;BME280;14785;52.556;13.430;2023-05-01T04:20:03;101140.97;;;10.94;100.00
27294;BME280;14785;52.556;13.430;2023-05-01T04:22:30;101138.97;;;11.06;100.00
27294;BME280;14785;52.556;13.430;2023-05-01T04:24:56;101141.81;;;10.95;100.00
27294;BME280;14785;52.556;13.430;2023-05-01T04:27:21;101146.88;;;10.88;100.00
27294;BME280;14785;52.556;13.430;2023-05-01T04:29:47;101150.41;;;10.79;100.00
27294;BME280;14785;52.556;13.430;2023-05-01T04:32:12;101145.63;;;10.46;100.00
27294;BME280;14785;52.556;13.430;2023-05-01T04:34:38;101144.19;;;10.61;100.00
27294;BME280;14785;52.556;13.430;2023-05-01T04:37:03;101134.66;;;10.68;100.00
27294;BME280;14785;52.556;13.430;2023-05-01T04:39:31;101139.41;;;10.74;100.00
27294;BME280;14785;52.556;13.430;2023-05-01T04:41:57;101135.28;;;11.16;100.00
27294;BME280;14785;52.556;13.430;2023-05-01T04:44:23;101132.91;;;11.13;100.00
27294;BME280;14785;52.556;13.430;2023-05-01T04:46:48;101139.09;;;10.77;100.00
27294;BME280;14785;52.556;13.430;2023-05-01T04:49:14;101131.03;;;10.96;100.00
27294;BME280;14785;52.556;13.430;2023-05-01T04:51:39;101127.59;;;11.13;100.00
27294;BME280;14785;52.556;13.430;2023-05-01T04:54:05;101132.28;;;10.65;100.00
27294;BME280;14785;52.556;13.430;2023-05-01T04:56:30;101126.69;;;10.68;100.00
27294;BME280;14785;52.556;13.430;2023-05-01T04:58:56;101124.03;;;10.68;100.00
27294;BME280;14785;52.556;13.430;2023-05-01T05:01:21;101125.16;;;10.93;100.00
27294;BME280;14785;52.556;13.430;2023-05-01T05:03:47;101127.91;;;10.28;100.00
27294;BME280;14785;52.556;13.430;2023-05-01T05:06:12;101137.41;;;10.76;100.00
27294;BME280;14785;52.556;13.430;2023-05-01T05:08:38;101124.09;;;11.13;100.00
27294;BME280;14785;52.556;13.430;2023-05-01T05:11:03;101126.25;;;11.27;100.00
27294;BME280;14785;52.556;13.430;2023-05-01T05:13:29;101127.91;;;11.28;100.00
27294;BME280;14785;52.556;13.430;2023-05-01T05:15:54;101124.47;;;10.54;100.00
27294;BME280;14785;52.556;13.430;2023-05-01T05:18:19;101112.69;;;10.93;100.00
27294;BME280;14785;52.556;13.430;2023-05-01T05:20:45;101115.19;;;11.04;100.00
27294;BME280;14785;52.556;13.430;2023-05-01T05:23:11;101114.00;;;11.16;100.00
27294;BME280;14785;52.556;13.430;2023-05-01T05:25:36;101115.81;;;11.33;100.00
27294;BME280;14785;52.556;13.430;2023-05-01T05:28:02;101111.69;;;10.94;100.00
27294;BME280;14785;52.556;13.430;2023-05-01T05:30:28;101109.84;;;11.04;100.00
27294;BME280;14785;52.556;13.430;2023-05-01T05:32:53;101110.03;;;11.20;100.00
27294;BME280;14785;52.556;13.430;2023-05-01T05:35:19;101106.66;;;10.64;100.00
27294;BME280;14785;52.556;13.430;2023-05-01T05:37:44;101106.19;;;11.05;100.00
27294;BME280;14785;52.556;13.430;2023-05-01T05:40:10;101097.63;;;10.84;100.00
27294;BME280;14785;52.556;13.430;2023-05-01T05:42:36;101095.00;;;10.75;100.00
27294;BME280;14785;52.556;13.430;2023-05-01T05:45:02;101094.09;;;11.11;100.00
27294;BME280;14785;52.556;13.430;2023-05-01T05:47:27;101092.69;;;11.16;100.00
27294;BME280;14785;52.556;13.430;2023-05-01T05:49:53;101092.44;;;11.10;100.00
27294;BME280;14785;52.556;13.430;2023-05-01T05:52:20;101091.06;;;10.33;100.00
27294;BME280;14785;52.556;13.430;2023-05-01T05:54:45;101089.09;;;10.44;100.00
27294;BME280;14785;52.556;13.430;2023-05-01T05:57:11;101082.56;;;10.66;100.00
27294;BME280;14785;52.556;13.430;2023-05-01T05:59:36;101088.16;;;10.72;100.00
27294;BME280;14785;52.556;13.430;2023-05-01T06:02:02;101082.53;;;10.75;100.00
27294;BME280;14785;52.556;13.430;2023-05-01T06:04:28;101085.66;;;11.15;100.00
27294;BME280;14785;52.556;13.430;2023-05-01T06:06:53;101084.00;;;11.49;100.00
27294;BME280;14785;52.556;13.430;2023-05-01T06:09:18;101083.50;;;11.28;100.00
27294;BME280;14785;52.556;13.430;2023-05-01T06:11:44;101086.09;;;11.91;100.00
27294;BME280;14785;52.556;13.430;2023-05-01T06:14:10;101084.16;;;12.01;100.00
27294;BME280;14785;52.556;13.430;2023-05-01T06:16:36;101083.63;;;12.15;100.00
27294;BME280;14785;52.556;13.430;2023-05-01T06:19:01;101082.75;;;12.32;100.00
27294;BME280;14785;52.556;13.430;2023-05-01T06:21:27;101082.75;;;12.32;100.00
27294;BME280;14785;52.556;13.430;2023-05-01T06:23:52;101082.66;;;11.98;100.00
27294;BME280;14785;52.556;13.430;2023-05-01T06:26:18;101088.25;;;12.13;100.00
27294;BME280;14785;52.556;13.430;2023-05-01T06:28:43;101079.47;;;12.46;100.00
27294;BME280;14785;52.556;13.430;2023-05-01T06:31:09;101083.53;;;12.07;100.00
27294;BME280;14785;52.556;13.430;2023-05-01T06:33:35;101075.31;;;12.18;100.00
27294;BME280;14785;52.556;13.430;2023-05-01T06:36:01;101073.81;;;12.49;100.00
27294;BME280;14785;52.556;13.430;2023-05-01T06:38:26;101077.56;;;12.64;100.00
27294;BME280;14785;52.556;13.430;2023-05-01T06:40:52;101074.50;;;12.84;100.00
27294;BME280;14785;52.556;13.430;2023-05-01T06:43:18;101079.41;;;12.63;100.00
27294;BME280;14785;52.556;13.430;2023-05-01T06:45:44;101077.72;;;12.96;100.00
27294;BME280;14785;52.556;13.430;2023-05-01T06:48:09;101072.25;;;12.13;100.00
27294;BME280;14785;52.556;13.430;2023-05-01T06:50:35;101075.91;;;12.63;100.00
27294;BME280;14785;52.556;13.430;2023-05-01T06:53:01;101071.84;;;12.51;100.00
27294;BME280;14785;52.556;13.430;2023-05-01T06:55:27;101070.06;;;12.34;100.00
27294;BME280;14785;52.556;13.430;2023-05-01T06:57:56;101066.25;;;12.70;100.00
27294;BME280;14785;52.556;13.430;2023-05-01T07:00:22;101071.13;;;13.08;100.00
27294;BME280;14785;52.556;13.430;2023-05-01T07:02:48;101067.47;;;12.83;100.00
27294;BME280;14785;52.556;13.430;2023-05-01T07:05:13;101071.97;;;12.83;100.00
27294;BME280;14785;52.556;13.430;2023-05-01T07:07:39;101071.69;;;13.27;100.00
27294;BME280;14785;52.556;13.430;2023-05-01T07:10:05;101069.88;;;13.52;100.00
27294;BME280;14785;52.556;13.430;2023-05-01T07:12:30;101070.88;;;13.91;100.00
27294;BME280;14785;52.556;13.430;2023-05-01T07:14:56;101071.03;;;13.50;100.00
27294;BME280;14785;52.556;13.430;2023-05-01T07:17:21;101067.22;;;13.60;100.00
27294;BME280;14785;52.556;13.430;2023-05-01T07:19:47;101066.50;;;13.50;100.00
27294;BME280;14785;52.556;13.430;2023-05-01T07:22:14;101067.88;;;13.54;100.00
27294;BME280;14785;52.556;13.430;2023-05-01T07:24:40;101071.38;;;13.79;100.00
27294;BME280;14785;52.556;13.430;2023-05-01T07:27:06;101065.03;;;13.96;100.00
27294;BME280;14785;52.556;13.430;2023-05-01T07:29:31;101065.19;;;14.10;100.00
27294;BME280;14785;52.556;13.430;2023-05-01T07:31:57;101056.19;;;13.79;100.00
27294;BME280;14785;52.556;13.430;2023-05-01T07:34:23;101049.81;;;14.28;100.00
27294;BME280;14785;52.556;13.430;2023-05-01T07:36:48;101058.06;;;15.04;98.41
27294;BME280;14785;52.556;13.430;2023-05-01T07:39:14;101048.56;;;14.93;98.43
27294;BME280;14785;52.556;13.430;2023-05-01T07:41:41;101050.97;;;15.42;96.82
27294;BME280;14785;52.556;13.430;2023-05-01T07:44:07;101041.34;;;14.63;98.20
27294;BME280;14785;52.556;13.430;2023-05-01T07:46:32;101042.03;;;14.57;100.00
27294;BME280;14785;52.556;13.430;2023-05-01T07:48:59;101043.84;;;14.65;98.76
27294;BME280;14785;52.556;13.430;2023-05-01T07:51:25;101033.53;;;15.46;96.03
27294;BME280;14785;52.556;13.430;2023-05-01T07:53:50;101035.16;;;15.55;95.71
27294;BME280;14785;52.556;13.430;2023-05-01T07:56:16;101037.03;;;15.69;93.66
27294;BME280;14785;52.556;13.430;2023-05-01T07:58:42;101032.28;;;14.64;95.94
27294;BME280;14785;52.556;13.430;2023-05-01T08:01:08;101034.13;;;15.56;94.42
27294;BME280;14785;52.556;13.430;2023-05-01T08:03:33;101026.88;;;16.16;94.30
27294;BME280;14785;52.556;13.430;2023-05-01T08:05:59;101021.88;;;15.39;93.16
27294;BME280;14785;52.556;13.430;2023-05-01T08:08:24;101016.50;;;14.77;96.60
27294;BME280;14785;52.556;13.430;2023-05-01T08:10:51;101013.97;;;14.45;98.09
27294;BME280;14785;52.556;13.430;2023-05-01T08:13:16;101013.19;;;14.75;98.34
27294;BME280;14785;52.556;13.430;2023-05-01T08:15:43;101017.50;;;14.84;97.49
27294;BME280;14785;52.556;13.430;2023-05-01T08:18:08;101013.09;;;14.91;97.70
27294;BME280;14785;52.556;13.430;2023-05-01T08:20:37;101012.38;;;14.97;98.72
27294;BME280;14785;52.556;13.430;2023-05-01T08:23:02;101011.59;;;15.65;95.83
27294;BME280;14785;52.556;13.430;2023-05-01T08:25:28;101010.38;;;15.90;94.17
27294;BME280;14785;52.556;13.430;2023-05-01T08:27:57;101015.03;;;16.83;91.07
27294;BME280;14785;52.556;13.430;2023-05-01T08:30:22;101007.19;;;16.23;91.04
27294;BME280;14785;52.556;13.430;2023-05-01T08:32:48;101009.47;;;15.60;92.41
27294;BME280;14785;52.556;13.430;2023-05-01T08:35:13;101006.28;;;16.45;90.49
27294;BME280;14785;52.556;13.430;2023-05-01T08:37:39;101005.63;;;16.58;89.04
27294;BME280;14785;52.556;13.430;2023-05-01T08:40:05;101004.53;;;17.02;88.69
27294;BME280;14785;52.556;13.430;2023-05-01T08:42:34;101004.31;;;16.54;88.46
27294;BME280;14785;52.556;13.430;2023-05-01T08:45:01;101005.25;;;16.61;89.15
27294;BME280;14785;52.556;13.430;2023-05-01T08:47:27;100995.22;;;16.26;88.55
27294;BME280;14785;52.556;13.430;2023-05-01T08:49:55;100992.59;;;15.89;88.30
27294;BME280;14785;52.556;13.430;2023-05-01T08:52:22;100992.91;;;16.08;86.85
27294;BME280;14785;52.556;13.430;2023-05-01T08:54:49;100984.69;;;16.10;88.91
27294;BME280;14785;52.556;13.430;2023-05-01T08:57:16;100987.31;;;16.47;87.68
27294;BME280;14785;52.556;13.430;2023-05-01T08:59:43;100985.66;;;16.46;85.04
27294;BME280;14785;52.556;13.430;2023-05-01T09:02:09;100986.94;;;16.50;85.93
27294;BME280;14785;52.556;13.430;2023-05-01T09:04:37;100980.06;;;16.62;83.68
27294;BME280;14785;52.556;13.430;2023-05-01T09:07:03;100982.03;;;16.89;81.52
27294;BME280;14785;52.556;13.430;2023-05-01T09:09:30;100972.38;;;17.09;82.43
27294;BME280;14785;52.556;13.430;2023-05-01T09:11:59;100959.38;;;16.77;83.38
27294;BME280;14785;52.556;13.430;2023-05-01T09:14:27;100963.56;;;17.00;82.27
27294;BME280;14785;52.556;13.430;2023-05-01T09:16:52;100958.34;;;17.13;80.17
27294;BME280;14785;52.556;13.430;2023-05-01T09:19:18;100946.63;;;17.00;79.01
27294;BME280;14785;52.556;13.430;2023-05-01T09:21:44;100940.91;;;17.45;77.91
27294;BME280;14785;52.556;13.430;2023-05-01T09:24:09;100940.50;;;17.06;76.41
27294;BME280;14785;52.556;13.430;2023-05-01T09:26:38;100945.81;;;16.49;78.74
27294;BME280;14785;52.556;13.430;2023-05-01T09:29:06;100936.63;;;16.94;78.61
27294;BME280;14785;52.556;13.430;2023-05-01T09:31:31;100933.56;;;16.97;77.56
27294;BME280;14785;52.556;13.430;2023-05-01T09:33:58;100926.97;;;17.42;77.46
27294;BME280;14785;52.556;13.430;2023-05-01T09:36:26;100926.22;;;17.75;74.74
27294;BME280;14785;52.556;13.430;2023-05-01T09:38:52;100925.44;;;17.81;76.38
27294;BME280;14785;52.556;13.430;2023-05-01T09:41:18;100918.69;;;17.64;74.47
27294;BME280;14785;52.556;13.430;2023-05-01T09:43:58;100917.53;;;17.73;76.48
27294;BME280;14785;52.556;13.430;2023-05-01T09:46:24;100919.56;;;17.71;75.86
27294;BME280;14785;52.556;13.430;2023-05-01T09:48:58;100907.69;;;17.93;75.22
27294;BME280;14785;52.556;13.430;2023-05-01T09:51:28;100903.22;;;18.00;75.99
27294;BME280;14785;52.556;13.430;2023-05-01T09:53:55;100893.53;;;18.53;75.93
27294;BME280;14785;52.556;13.430;2023-05-01T09:56:21;100894.88;;;18.89;74.00
27294;BME280;14785;52.556;13.430;2023-05-01T09:58:52;100893.13;;;18.56;76.24
27294;BME280;14785;52.556;13.430;2023-05-01T10:01:18;100895.16;;;18.41;74.66
27294;BME280;14785;52.556;13.430;2023-05-01T10:03:44;100892.66;;;18.39;73.90
27294;BME280;14785;52.556;13.430;2023-05-01T10:06:10;100897.38;;;18.98;72.60
27294;BME280;14785;52.556;13.430;2023-05-01T10:08:48;100894.94;;;19.61;71.96
27294;BME280;14785;52.556;13.430;2023-05-01T10:11:14;100893.81;;;20.08;71.49
27294;BME280;14785;52.556;13.430;2023-05-01T10:13:40;100887.84;;;19.93;70.71
27294;BME280;14785;52.556;13.430;2023-05-01T10:16:06;100882.72;;;19.39;70.63
27294;BME280;14785;52.556;13.430;2023-05-01T10:18:33;100879.00;;;19.34;73.56
27294;BME280;14785;52.556;13.430;2023-05-01T10:21:02;100867.97;;;19.68;70.67
27294;BME280;14785;52.556;13.430;2023-05-01T10:23:28;100869.66;;;19.36;71.73
27294;BME280;14785;52.556;13.430;2023-05-01T10:25:55;100869.72;;;20.00;70.34
27294;BME280;14785;52.556;13.430;2023-05-01T10:28:21;100865.88;;;19.57;71.29
27294;BME280;14785;52.556;13.430;2023-05-01T10:30:49;100878.22;;;20.29;73.07
27294;BME280;14785;52.556;13.430;2023-05-01T10:33:16;100869.31;;;20.60;72.10
27294;BME280;14785;52.556;13.430;2023-05-01T10:35:45;100862.00;;;21.29;69.04
27294;BME280;14785;52.556;13.430;2023-05-01T10:38:25;100861.94;;;22.03;65.56
27294;BME280;14785;52.556;13.430;2023-05-01T10:40:54;100851.91;;;21.85;64.10
27294;BME280;14785;52.556;13.430;2023-05-01T10:45:53;100840.91;;;22.34;62.00
27294;BME280;14785;52.556;13.430;2023-05-01T10:51:37;100836.25;;;22.05;59.18
27294;BME280;14785;52.556;13.430;2023-05-01T10:54:27;100835.81;;;21.90;60.92
27294;BME280;14785;52.556;13.430;2023-05-01T10:56:54;100819.72;;;21.77;60.66
27294;BME280;14785;52.556;13.430;2023-05-01T10:59:20;100819.97;;;22.23;60.73
27294;BME280;14785;52.556;13.430;2023-05-01T11:01:46;100815.41;;;22.24;62.78
27294;BME280;14785;52.556;13.430;2023-05-01T11:12:07;100811.06;;;22.94;59.80
27294;BME280;14785;52.556;13.430;2023-05-01T11:20:08;100794.94;;;23.68;58.29
27294;BME280;14785;52.556;13.430;2023-05-01T11:22:34;100793.38;;;23.95;53.96
27294;BME280;14785;52.556;13.430;2023-05-01T11:25:01;100784.63;;;22.48;56.03
27294;BME280;14785;52.556;13.430;2023-05-01T11:27:29;100774.25;;;21.97;57.01
27294;BME280;14785;52.556;13.430;2023-05-01T11:29:57;100760.09;;;21.41;60.31
27294;BME280;14785;52.556;13.430;2023-05-01T11:32:25;100771.94;;;21.22;60.13
27294;BME280;14785;52.556;13.430;2023-05-01T11:34:52;100770.78;;;21.72;60.83
27294;BME280;14785;52.556;13.430;2023-05-01T11:37:18;100760.75;;;22.57;57.23
27294;BME280;14785;52.556;13.430;2023-05-01T11:39:50;100758.44;;;22.83;57.01
27294;BME280;14785;52.556;13.430;2023-05-01T11:42:19;100753.22;;;22.59;56.43
27294;BME280;14785;52.556;13.430;2023-05-01T11:45:04;100749.16;;;22.49;56.39
27294;BME280;14785;52.556;13.430;2023-05-01T11:47:33;100748.97;;;22.63;56.03
27294;BME280;14785;52.556;13.430;2023-05-01T11:49:59;100750.25;;;22.30;57.12
27294;BME280;14785;52.556;13.430;2023-05-01T11:52:27;100747.44;;;23.82;54.55
27294;BME280;14785;52.556;13.430;2023-05-01T11:54:53;100747.34;;;24.16;52.03
27294;BME280;14785;52.556;13.430;2023-05-01T11:57:18;100745.50;;;24.95;49.21
27294;BME280;14785;52.556;13.430;2023-05-01T11:59:47;100741.97;;;24.33;51.68
27294;BME280;14785;52.556;13.430;2023-05-01T12:02:21;100738.00;;;24.41;54.34
27294;BME280;14785;52.556;13.430;2023-05-01T12:04:47;100731.38;;;26.39;51.04
27294;BME280;14785;52.556;13.430;2023-05-01T12:07:19;100734.78;;;26.51;45.03
27294;BME280;14785;52.556;13.430;2023-05-01T12:09:45;100730.03;;;26.15;47.30
27294;BME280;14785;52.556;13.430;2023-05-01T12:12:11;100722.66;;;25.93;45.89
27294;BME280;14785;52.556;13.430;2023-05-01T12:14:39;100717.97;;;26.10;45.22
27294;BME280;14785;52.556;13.430;2023-05-01T12:17:05;100717.72;;;26.97;43.41
27294;BME280;14785;52.556;13.430;2023-05-01T12:19:31;100718.19;;;25.61;43.00
27294;BME280;14785;52.556;13.430;2023-05-01T12:22:06;100707.72;;;24.98;45.33
27294;BME280;14785;52.556;13.430;2023-05-01T12:24:32;100714.38;;;25.62;44.16
27294;BME280;14785;52.556;13.430;2023-05-01T12:27:01;100706.69;;;26.24;46.00
27294;BME280;14785;52.556;13.430;2023-05-01T12:29:47;100700.88;;;26.47;43.34
27294;BME280;14785;52.556;13.430;2023-05-01T12:32:14;100691.13;;;26.51;43.55
27294;BME280;14785;52.556;13.430;2023-05-01T12:34:39;100701.31;;;26.34;41.80
27294;BME280;14785;52.556;13.430;2023-05-01T12:37:06;100686.03;;;25.03;43.74
27294;BME280;14785;52.556;13.430;2023-05-01T12:39:41;100691.97;;;23.66;42.75
27294;BME280;14785;52.556;13.430;2023-05-01T12:42:13;100684.28;;;24.48;47.56
27294;BME280;14785;52.556;13.430;2023-05-01T12:44:39;100685.88;;;23.87;47.01
27294;BME280;14785;52.556;13.430;2023-05-01T12:47:06;100680.28;;;23.66;47.12
27294;BME280;14785;52.556;13.430;2023-05-01T12:49:34;100672.41;;;24.37;51.95
27294;BME280;14785;52.556;13.430;2023-05-01T12:52:02;100670.19;;;24.34;48.04
27294;BME280;14785;52.556;13.430;2023-05-01T12:54:30;100669.13;;;24.35;47.00
27294;BME280;14785;52.556;13.430;2023-05-01T12:57:13;100671.44;;;24.60;46.98
27294;BME280;14785;52.556;13.430;2023-05-01T12:59:43;100666.09;;;25.19;44.53
27294;BME280;14785;52.556;13.430;2023-05-01T13:02:11;100668.06;;;23.80;43.73
27294;BME280;14785;52.556;13.430;2023-05-01T13:04:40;100663.41;;;24.65;45.31
27294;BME280;14785;52.556;13.430;2023-05-01T13:07:17;100664.53;;;24.85;42.85
27294;BME280;14785;52.556;13.430;2023-05-01T13:09:56;100655.03;;;25.42;46.42
27294;BME280;14785;52.556;13.430;2023-05-01T13:12:25;100659.63;;;25.63;42.74